sensor_id;sensor_type;location;lat;lon;timestamp;pressure;altitude;pressure_sealevel;temperature;humidity
46583;BME280;32309;48.858;8.252;2022-12-18T00:01:18;101571.25;;;-6.78;88.62
46583;BME280;32309;48.858;8.252;2022-12-18T00:03:18;101577.19;;;-6.78;88.19
46583;BME280;32309;48.858;8.252;2022-12-18T00:05:19;101587.91;;;-6.83;87.68
46583;BME280;32309;48.858;8.252;2022-12-18T00:07:19;101584.63;;;-6.81;88.29
46583;BME280;32309;48.858;8.252;2022-12-18T00:09:19;101591.50;;;-6.77;88.81
46583;BME280;32309;48.858;8.252;2022-12-18T00:11:21;101591.59;;;-6.74;88.14
46583;BME280;32309;48.858;8.252;2022-12-18T00:13:21;101589.84;;;-6.76;88.57
46583;BME280;32309;48.858;8.252;2022-12-18T00:15:21;101589.66;;;-6.81;87.37
46583;BME280;32309;48.858;8.252;2022-12-18T00:17:22;101578.69;;;-6.83;88.17
46583;BME280;32309;48.858;8.252;2022-12-18T00:19:22;101579.44;;;-6.86;87.78
46583;BME280;32309;48.858;8.252;2022-12-18T00:21:22;101571.06;;;-6.84;88.65
46583;BME280;32309;48.858;8.252;2022-12-18T00:23:22;101575.34;;;-6.82;88.86
46583;BME280;32309;48.858;8.252;2022-12-18T00:25:22;101580.44;;;-6.80;87.69
46583;BME280;32309;48.858;8.252;2022-12-18T00:27:23;101587.91;;;-6.83;87.63
46583;BME280;32309;48.858;8.252;2022-12-18T00:29:23;101583.44;;;-6.91;87.91
46583;BME280;32309;48.858;8.252;2022-12-18T00:31:23;101589.97;;;-6.96;88.47
46583;BME280;32309;48.858;8.252;2022-12-18T00:33:24;101583.22;;;-6.97;88.28
46583;BME280;32309;48.858;8.252;2022-12-18T00:35:24;101586.63;;;-6.96;87.78
46583;BME280;32309;48.858;8.252;2022-12-18T00:37:24;101586.63;;;-6.96;87.35
46583;BME280;32309;48.858;8.252;2022-12-18T00:39:24;101585.66;;;-7.00;87.74
46583;BME280;32309;48.858;8.252;2022-12-18T00:41:25;101581.44;;;-6.99;88.08
46583;BME280;32309;48.858;8.252;2022-12-18T00:43:44;101577.84;;;-7.06;87.35
46583;BME280;32309;48.858;8.252;2022-12-18T00:45:45;101575.41;;;-7.05;87.89
46583;BME280;32309;48.858;8.252;2022-12-18T00:47:45;101581.13;;;-7.09;87.19
46583;BME280;32309;48.858;8.252;2022-12-18T00:49:45;101581.19;;;-7.07;87.66
46583;BME280;32309;48.858;8.252;2022-12-18T00:51:45;101581.75;;;-7.14;87.10
46583;BME280;32309;48.858;8.252;2022-12-18T00:53:46;101578.13;;;-7.23;87.20
46583;BME280;32309;48.858;8.252;2022-12-18T00:55:46;101588.19;;;-7.23;87.15
46583;BME280;32309;48.858;8.252;2022-12-18T00:57:46;101586.56;;;-7.21;87.08
46583;BME280;32309;48.858;8.252;2022-12-18T00:59:46;101586.47;;;-7.24;87.59
46583;BME280;32309;48.858;8.252;2022-12-18T01:01:47;101575.50;;;-7.26;86.92
46583;BME280;32309;48.858;8.252;2022-12-18T01:03:47;101561.00;;;-7.31;87.66
46583;BME280;32309;48.858;8.252;2022-12-18T01:05:47;101566.72;;;-7.36;87.67
46583;BME280;32309;48.858;8.252;2022-12-18T01:07:47;101573.44;;;-7.36;87.21
46583;BME280;32309;48.858;8.252;2022-12-18T01:09:48;101578.53;;;-7.34;88.24
46583;BME280;32309;48.858;8.252;2022-12-18T01:11:48;101581.84;;;-7.36;87.81
46583;BME280;32309;48.858;8.252;2022-12-18T01:13:48;101584.41;;;-7.34;88.77
46583;BME280;32309;48.858;8.252;2022-12-18T01:15:49;101578.63;;;-7.31;87.21
46583;BME280;32309;48.858;8.252;2022-12-18T01:17:51;101576.84;;;-7.34;87.32
46583;BME280;32309;48.858;8.252;2022-12-18T01:19:51;101579.03;;;-7.43;88.01
46583;BME280;32309;48.858;8.252;2022-12-18T01:21:52;101576.38;;;-7.48;87.77
46583;BME280;32309;48.858;8.252;2022-12-18T01:23:53;101570.44;;;-7.48;89.02
46583;BME280;32309;48.858;8.252;2022-12-18T01:25:53;101566.63;;;-7.39;88.13
46583;BME280;32309;48.858;8.252;2022-12-18T01:27:53;101561.59;;;-7.39;87.98
46583;BME280;32309;48.858;8.252;2022-12-18T01:29:54;101563.03;;;-7.45;88.77
46583;BME280;32309;48.858;8.252;2022-12-18T01:31:54;101562.16;;;-7.46;89.12
46583;BME280;32309;48.858;8.252;2022-12-18T01:33:55;101573.19;;;-7.42;88.26
46583;BME280;32309;48.858;8.252;2022-12-18T01:35:55;101580.75;;;-7.42;88.08
46583;BME280;32309;48.858;8.252;2022-12-18T01:37:55;101591.03;;;-7.38;88.36
46583;BME280;32309;48.858;8.252;2022-12-18T01:39:56;101590.19;;;-7.37;89.40
46583;BME280;32309;48.858;8.252;2022-12-18T01:41:56;101580.34;;;-7.30;89.40
46583;BME280;32309;48.858;8.252;2022-12-18T01:44:46;101580.53;;;-7.26;89.19
46583;BME280;32309;48.858;8.252;2022-12-18T01:46:23;101593.22;;;-7.23;89.34
46583;BME280;32309;48.858;8.252;2022-12-18T01:48:23;101615.97;;;-7.21;88.75
46583;BME280;32309;48.858;8.252;2022-12-18T01:50:25;101608.34;;;-7.23;88.12
46583;BME280;32309;48.858;8.252;2022-12-18T01:52:28;101601.50;;;-7.27;89.54
46583;BME280;32309;48.858;8.252;2022-12-18T01:54:28;101584.69;;;-7.26;89.46
46583;BME280;32309;48.858;8.252;2022-12-18T01:56:29;101587.56;;;-7.17;89.57
46583;BME280;32309;48.858;8.252;2022-12-18T01:58:41;101583.72;;;-7.07;89.24
46583;BME280;32309;48.858;8.252;2022-12-18T02:00:44;101592.47;;;-6.97;89.56
46583;BME280;32309;48.858;8.252;2022-12-18T02:02:45;101594.19;;;-6.96;89.30
46583;BME280;32309;48.858;8.252;2022-12-18T02:04:45;101596.81;;;-6.93;89.86
46583;BME280;32309;48.858;8.252;2022-12-18T02:06:46;101596.06;;;-6.91;88.75
46583;BME280;32309;48.858;8.252;2022-12-18T02:08:50;101601.88;;;-6.92;89.60
46583;BME280;32309;48.858;8.252;2022-12-18T02:11:00;101609.41;;;-6.93;88.91
46583;BME280;32309;48.858;8.252;2022-12-18T02:13:11;101603.47;;;-6.95;89.50
46583;BME280;32309;48.858;8.252;2022-12-18T02:15:36;101605.16;;;-6.94;89.53
46583;BME280;32309;48.858;8.252;2022-12-18T02:17:45;101595.81;;;-6.97;89.04
46583;BME280;32309;48.858;8.252;2022-12-18T02:19:52;101590.88;;;-6.95;88.87
46583;BME280;32309;48.858;8.252;2022-12-18T02:22:00;101601.00;;;-6.94;89.33
46583;BME280;32309;48.858;8.252;2022-12-18T02:26:36;101596.75;;;-6.95;88.40
46583;BME280;32309;48.858;8.252;2022-12-18T02:28:40;101603.22;;;-7.02;88.08
46583;BME280;32309;48.858;8.252;2022-12-18T02:30:42;101605.66;;;-7.05;89.43
46583;BME280;32309;48.858;8.252;2022-12-18T02:32:44;101608.28;;;-7.02;88.13
46583;BME280;32309;48.858;8.252;2022-12-18T02:34:46;101606.50;;;-7.04;87.88
46583;BME280;32309;48.858;8.252;2022-12-18T02:36:49;101602.72;;;-7.15;87.62
46583;BME280;32309;48.858;8.252;2022-12-18T02:38:49;101595.72;;;-7.24;88.20
46583;BME280;32309;48.858;8.252;2022-12-18T02:40:51;101592.25;;;-7.26;88.71
46583;BME280;32309;48.858;8.252;2022-12-18T02:42:53;101591.97;;;-7.34;87.94
46583;BME280;32309;48.858;8.252;2022-12-18T02:44:53;101588.38;;;-7.41;88.33
46583;BME280;32309;48.858;8.252;2022-12-18T02:46:53;101591.75;;;-7.40;88.53
46583;BME280;32309;48.858;8.252;2022-12-18T02:49:01;101592.41;;;-7.44;87.71
46583;BME280;32309;48.858;8.252;2022-12-18T02:51:08;101592.31;;;-7.47;88.60
46583;BME280;32309;48.858;8.252;2022-12-18T02:53:23;101590.78;;;-7.44;88.27
46583;BME280;32309;48.858;8.252;2022-12-18T02:57:40;101596.63;;;-7.45;87.73
46583;BME280;32309;48.858;8.252;2022-12-18T02:59:46;101608.97;;;-7.51;88.49
46583;BME280;32309;48.858;8.252;2022-12-18T03:02:00;101613.22;;;-7.50;88.29
46583;BME280;32309;48.858;8.252;2022-12-18T03:04:03;101608.75;;;-7.57;88.31
46583;BME280;32309;48.858;8.252;2022-12-18T03:06:06;101612.69;;;-7.64;87.89
46583;BME280;32309;48.858;8.252;2022-12-18T03:08:08;101606.03;;;-7.62;87.27
46583;BME280;32309;48.858;8.252;2022-12-18T03:10:11;101611.13;;;-7.60;88.21
46583;BME280;32309;48.858;8.252;2022-12-18T03:12:20;101614.38;;;-7.63;87.00
46583;BME280;32309;48.858;8.252;2022-12-18T03:14:22;101612.91;;;-7.58;86.87
46583;BME280;32309;48.858;8.252;2022-12-18T03:16:25;101613.50;;;-7.65;86.69
46583;BME280;32309;48.858;8.252;2022-12-18T03:18:29;101609.09;;;-7.71;86.97
46583;BME280;32309;48.858;8.252;2022-12-18T03:20:30;101608.78;;;-7.78;87.45
46583;BME280;32309;48.858;8.252;2022-12-18T03:22:32;101606.81;;;-7.86;86.99
46583;BME280;32309;48.858;8.252;2022-12-18T03:24:33;101607.91;;;-7.79;87.98
46583;BME280;32309;48.858;8.252;2022-12-18T03:26:38;101624.84;;;-7.75;86.87
46583;BME280;32309;48.858;8.252;2022-12-18T03:28:45;101621.72;;;-7.69;87.08
46583;BME280;32309;48.858;8.252;2022-12-18T03:30:46;101623.25;;;-7.73;87.06
46583;BME280;32309;48.858;8.252;2022-12-18T03:34:47;101614.63;;;-7.57;88.10
46583;BME280;32309;48.858;8.252;2022-12-18T03:36:50;101620.88;;;-7.47;87.09
46583;BME280;32309;48.858;8.252;2022-12-18T03:38:51;101620.94;;;-7.45;87.14
46583;BME280;32309;48.858;8.252;2022-12-18T03:41:07;101617.69;;;-7.43;87.99
46583;BME280;32309;48.858;8.252;2022-12-18T03:43:19;101609.25;;;-7.43;87.20
46583;BME280;32309;48.858;8.252;2022-12-18T03:45:22;101602.69;;;-7.40;86.84
46583;BME280;32309;48.858;8.252;2022-12-18T03:51:52;101596.72;;;-7.42;88.13
46583;BME280;32309;48.858;8.252;2022-12-18T03:53:57;101587.84;;;-7.32;88.38
46583;BME280;32309;48.858;8.252;2022-12-18T03:55:58;101585.63;;;-7.24;87.89
46583;BME280;32309;48.858;8.252;2022-12-18T03:58:00;101588.44;;;-7.16;88.33
46583;BME280;32309;48.858;8.252;2022-12-18T04:00:11;101587.84;;;-7.09;88.33
46583;BME280;32309;48.858;8.252;2022-12-18T04:02:13;101581.31;;;-7.04;87.32
46583;BME280;32309;48.858;8.252;2022-12-18T04:04:14;101597.50;;;-6.97;87.33
46583;BME280;32309;48.858;8.252;2022-12-18T04:06:16;101600.13;;;-6.94;87.49
46583;BME280;32309;48.858;8.252;2022-12-18T04:08:17;101592.63;;;-6.93;88.16
46583;BME280;32309;48.858;8.252;2022-12-18T04:10:18;101596.00;;;-6.92;87.60
46583;BME280;32309;48.858;8.252;2022-12-18T04:12:18;101584.28;;;-6.90;87.83
46583;BME280;32309;48.858;8.252;2022-12-18T04:14:18;101586.94;;;-6.87;86.68
46583;BME280;32309;48.858;8.252;2022-12-18T04:16:18;101587.84;;;-6.85;87.99
46583;BME280;32309;48.858;8.252;2022-12-18T04:18:19;101589.66;;;-6.81;86.82
46583;BME280;32309;48.858;8.252;2022-12-18T04:20:19;101589.03;;;-6.75;88.22
46583;BME280;32309;48.858;8.252;2022-12-18T04:22:19;101589.09;;;-6.74;87.99
46583;BME280;32309;48.858;8.252;2022-12-18T04:24:19;101584.84;;;-6.75;87.35
46583;BME280;32309;48.858;8.252;2022-12-18T04:26:19;101584.88;;;-6.73;87.10
46583;BME280;32309;48.858;8.252;2022-12-18T04:28:20;101576.44;;;-6.75;86.77
46583;BME280;32309;48.858;8.252;2022-12-18T04:30:20;101578.19;;;-6.73;87.53
46583;BME280;32309;48.858;8.252;2022-12-18T04:32:20;101574.94;;;-6.70;87.78
46583;BME280;32309;48.858;8.252;2022-12-18T04:34:20;101570.78;;;-6.68;87.41
46583;BME280;32309;48.858;8.252;2022-12-18T04:36:21;101578.28;;;-6.70;87.36
46583;BME280;32309;48.858;8.252;2022-12-18T04:38:21;101580.00;;;-6.69;87.12
46583;BME280;32309;48.858;8.252;2022-12-18T04:40:21;101589.41;;;-6.64;88.01
46583;BME280;32309;48.858;8.252;2022-12-18T04:42:21;101594.22;;;-6.71;86.82
46583;BME280;32309;48.858;8.252;2022-12-18T04:44:21;101599.31;;;-6.69;87.51
46583;BME280;32309;48.858;8.252;2022-12-18T04:46:22;101599.91;;;-6.76;86.75
46583;BME280;32309;48.858;8.252;2022-12-18T04:48:22;101597.34;;;-6.78;86.43
46583;BME280;32309;48.858;8.252;2022-12-18T04:50:22;101596.56;;;-6.77;86.90
46583;BME280;32309;48.858;8.252;2022-12-18T04:52:22;101594.03;;;-6.77;87.07
46583;BME280;32309;48.858;8.252;2022-12-18T04:54:22;101595.56;;;-6.80;87.75
46583;BME280;32309;48.858;8.252;2022-12-18T04:56:22;101592.25;;;-6.79;87.58
46583;BME280;32309;48.858;8.252;2022-12-18T04:58:23;101587.22;;;-6.79;87.11
46583;BME280;32309;48.858;8.252;2022-12-18T05:00:23;101600.19;;;-6.93;86.81
46583;BME280;32309;48.858;8.252;2022-12-18T05:02:23;101605.84;;;-6.98;86.88
46583;BME280;32309;48.858;8.252;2022-12-18T05:04:23;101615.13;;;-6.97;86.85
46583;BME280;32309;48.858;8.252;2022-12-18T05:06:23;101611.88;;;-6.95;88.14
46583;BME280;32309;48.858;8.252;2022-12-18T05:08:24;101618.75;;;-6.91;87.33
46583;BME280;32309;48.858;8.252;2022-12-18T05:10:24;101618.03;;;-6.87;87.61
46583;BME280;32309;48.858;8.252;2022-12-18T05:12:24;101615.50;;;-6.87;87.73
46583;BME280;32309;48.858;8.252;2022-12-18T05:14:24;101613.94;;;-6.84;87.33
46583;BME280;32309;48.858;8.252;2022-12-18T05:16:24;101616.53;;;-6.81;87.68
46583;BME280;32309;48.858;8.252;2022-12-18T05:18:25;101617.47;;;-6.79;88.39
46583;BME280;32309;48.858;8.252;2022-12-18T05:20:25;101617.56;;;-6.76;88.08
46583;BME280;32309;48.858;8.252;2022-12-18T05:22:26;101612.47;;;-6.78;88.92
46583;BME280;32309;48.858;8.252;2022-12-18T05:24:26;101605.75;;;-6.77;88.35
46583;BME280;32309;48.858;8.252;2022-12-18T05:26:26;101604.97;;;-6.76;88.52
46583;BME280;32309;48.858;8.252;2022-12-18T05:28:27;101612.34;;;-6.81;88.50
46583;BME280;32309;48.858;8.252;2022-12-18T05:30:28;101617.00;;;-6.92;88.08
46583;BME280;32309;48.858;8.252;2022-12-18T05:32:28;101613.78;;;-6.88;89.00
46583;BME280;32309;48.858;8.252;2022-12-18T05:34:28;101602.13;;;-6.86;88.96
46583;BME280;32309;48.858;8.252;2022-12-18T05:36:28;101602.16;;;-6.84;89.32
46583;BME280;32309;48.858;8.252;2022-12-18T05:38:29;101611.50;;;-6.81;88.39
46583;BME280;32309;48.858;8.252;2022-12-18T05:40:29;101601.31;;;-6.84;88.87
46583;BME280;32309;48.858;8.252;2022-12-18T05:42:30;101605.63;;;-6.82;89.66
46583;BME280;32309;48.858;8.252;2022-12-18T05:44:30;101606.31;;;-6.86;89.45
46583;BME280;32309;48.858;8.252;2022-12-18T05:46:30;101608.84;;;-6.86;89.54
46583;BME280;32309;48.858;8.252;2022-12-18T05:48:30;101607.25;;;-6.82;90.29
46583;BME280;32309;48.858;8.252;2022-12-18T05:50:33;101610.69;;;-6.80;89.88
46583;BME280;32309;48.858;8.252;2022-12-18T05:52:33;101607.25;;;-6.82;88.83
46583;BME280;32309;48.858;8.252;2022-12-18T05:54:33;101616.63;;;-6.78;89.08
46583;BME280;32309;48.858;8.252;2022-12-18T05:56:33;101621.06;;;-6.73;89.18
46583;BME280;32309;48.858;8.252;2022-12-18T05:58:34;101623.63;;;-6.71;89.39
46583;BME280;32309;48.858;8.252;2022-12-18T06:00:35;101616.06;;;-6.71;89.15
46583;BME280;32309;48.858;8.252;2022-12-18T06:02:39;101619.44;;;-6.71;89.72
46583;BME280;32309;48.858;8.252;2022-12-18T06:04:39;101617.78;;;-6.70;88.93
46583;BME280;32309;48.858;8.252;2022-12-18T06:06:40;101623.69;;;-6.70;89.92
46583;BME280;32309;48.858;8.252;2022-12-18T06:08:40;101625.53;;;-6.64;89.54
46583;BME280;32309;48.858;8.252;2022-12-18T06:10:40;101618.97;;;-6.60;89.81
46583;BME280;32309;48.858;8.252;2022-12-18T06:12:41;101629.97;;;-6.58;89.01
46583;BME280;32309;48.858;8.252;2022-12-18T06:14:41;101635.81;;;-6.59;89.41
46583;BME280;32309;48.858;8.252;2022-12-18T06:16:41;101645.84;;;-6.61;88.69
46583;BME280;32309;48.858;8.252;2022-12-18T06:18:41;101655.66;;;-6.69;88.85
46583;BME280;32309;48.858;8.252;2022-12-18T06:20:41;101657.31;;;-6.69;89.07
46583;BME280;32309;48.858;8.252;2022-12-18T06:22:42;101659.81;;;-6.69;88.21
46583;BME280;32309;48.858;8.252;2022-12-18T06:24:43;101664.88;;;-6.69;88.43
46583;BME280;32309;48.858;8.252;2022-12-18T06:26:43;101660.72;;;-6.69;89.06
46583;BME280;32309;48.858;8.252;2022-12-18T06:28:43;101660.72;;;-6.69;89.12
46583;BME280;32309;48.858;8.252;2022-12-18T06:30:43;101669.03;;;-6.71;88.51
46583;BME280;32309;48.858;8.252;2022-12-18T06:32:44;101668.22;;;-6.70;88.35
46583;BME280;32309;48.858;8.252;2022-12-18T06:34:44;101669.91;;;-6.69;89.76
46583;BME280;32309;48.858;8.252;2022-12-18T06:36:44;101667.47;;;-6.67;89.71
46583;BME280;32309;48.858;8.252;2022-12-18T06:38:44;101662.34;;;-6.69;89.04
46583;BME280;32309;48.858;8.252;2022-12-18T06:40:45;101666.66;;;-6.66;89.67
46583;BME280;32309;48.858;8.252;2022-12-18T06:42:45;101673.41;;;-6.65;89.69
46583;BME280;32309;48.858;8.252;2022-12-18T06:44:45;101678.50;;;-6.64;89.38
46583;BME280;32309;48.858;8.252;2022-12-18T06:46:45;101674.91;;;-6.71;88.35
46583;BME280;32309;48.858;8.252;2022-12-18T06:48:49;101683.44;;;-6.67;88.84
46583;BME280;32309;48.858;8.252;2022-12-18T06:50:49;101676.63;;;-6.70;88.48
46583;BME280;32309;48.858;8.252;2022-12-18T06:52:50;101680.56;;;-6.78;88.31
46583;BME280;32309;48.858;8.252;2022-12-18T06:54:50;101682.28;;;-6.77;88.93
46583;BME280;32309;48.858;8.252;2022-12-18T06:56:50;101677.22;;;-6.77;88.82
46583;BME280;32309;48.858;8.252;2022-12-18T06:58:50;101678.06;;;-6.76;89.38
46583;BME280;32309;48.858;8.252;2022-12-18T07:00:50;101682.31;;;-6.75;89.64
46583;BME280;32309;48.858;8.252;2022-12-18T07:02:51;101670.63;;;-6.73;89.37
46583;BME280;32309;48.858;8.252;2022-12-18T07:04:51;101682.38;;;-6.74;89.27
46583;BME280;32309;48.858;8.252;2022-12-18T07:06:52;101680.78;;;-6.72;89.73
46583;BME280;32309;48.858;8.252;2022-12-18T07:08:52;101681.69;;;-6.70;89.26
46583;BME280;32309;48.858;8.252;2022-12-18T07:10:53;101681.72;;;-6.68;89.53
46583;BME280;32309;48.858;8.252;2022-12-18T07:12:54;101680.13;;;-6.66;89.26
46583;BME280;32309;48.858;8.252;2022-12-18T07:14:54;101681.84;;;-6.65;89.08
46583;BME280;32309;48.858;8.252;2022-12-18T07:16:54;101686.06;;;-6.64;89.63
46583;BME280;32309;48.858;8.252;2022-12-18T07:18:54;101682.75;;;-6.63;89.89
46583;BME280;32309;48.858;8.252;2022-12-18T07:20:55;101687.00;;;-6.62;89.01
46583;BME280;32309;48.858;8.252;2022-12-18T07:22:55;101681.84;;;-6.65;89.59
46583;BME280;32309;48.858;8.252;2022-12-18T07:24:55;101690.97;;;-6.69;89.07
46583;BME280;32309;48.858;8.252;2022-12-18T07:26:55;101680.09;;;-6.67;89.82
46583;BME280;32309;48.858;8.252;2022-12-18T07:28:56;101686.78;;;-6.68;89.43
46583;BME280;32309;48.858;8.252;2022-12-18T07:30:57;101682.69;;;-6.64;89.15
46583;BME280;32309;48.858;8.252;2022-12-18T07:32:58;101690.22;;;-6.66;89.45
46583;BME280;32309;48.858;8.252;2022-12-18T07:34:58;101686.91;;;-6.65;89.50
46583;BME280;32309;48.858;8.252;2022-12-18T07:36:59;101687.75;;;-6.64;90.19
46583;BME280;32309;48.858;8.252;2022-12-18T07:38:59;101690.38;;;-6.61;89.60
46583;BME280;32309;48.858;8.252;2022-12-18T07:41:03;101693.03;;;-6.58;89.57
46583;BME280;32309;48.858;8.252;2022-12-18T07:43:04;101688.88;;;-6.56;89.11
46583;BME280;32309;48.858;8.252;2022-12-18T07:45:04;101695.59;;;-6.57;89.74
46583;BME280;32309;48.858;8.252;2022-12-18T07:47:04;101699.84;;;-6.56;89.58
46583;BME280;32309;48.858;8.252;2022-12-18T07:49:04;101706.47;;;-6.58;88.82
46583;BME280;32309;48.858;8.252;2022-12-18T07:51:05;101708.16;;;-6.58;88.95
46583;BME280;32309;48.858;8.252;2022-12-18T07:53:06;101713.25;;;-6.57;89.72
46583;BME280;32309;48.858;8.252;2022-12-18T07:55:06;101707.41;;;-6.56;89.40
46583;BME280;32309;48.858;8.252;2022-12-18T07:57:07;101712.56;;;-6.53;89.37
46583;BME280;32309;48.858;8.252;2022-12-18T07:59:07;101716.84;;;-6.50;88.74
46583;BME280;32309;48.858;8.252;2022-12-18T08:01:08;101715.13;;;-6.51;89.34
46583;BME280;32309;48.858;8.252;2022-12-18T08:03:08;101716.75;;;-6.53;89.24
46583;BME280;32309;48.858;8.252;2022-12-18T08:05:12;101724.22;;;-6.55;89.20
46583;BME280;32309;48.858;8.252;2022-12-18T08:07:13;101726.88;;;-6.52;89.48
46583;BME280;32309;48.858;8.252;2022-12-18T08:09:13;101726.94;;;-6.50;89.42
46583;BME280;32309;48.858;8.252;2022-12-18T08:11:13;101726.97;;;-6.48;89.58
46583;BME280;32309;48.858;8.252;2022-12-18T08:13:13;101722.78;;;-6.48;89.85
46583;BME280;32309;48.858;8.252;2022-12-18T08:15:14;101724.47;;;-6.48;89.47
46583;BME280;32309;48.858;8.252;2022-12-18T08:17:14;101727.16;;;-6.44;89.85
46583;BME280;32309;48.858;8.252;2022-12-18T08:19:14;101722.97;;;-6.43;89.61
46583;BME280;32309;48.858;8.252;2022-12-18T08:21:18;101725.53;;;-6.42;89.82
46583;BME280;32309;48.858;8.252;2022-12-18T08:23:20;101722.22;;;-6.41;89.42
46583;BME280;32309;48.858;8.252;2022-12-18T08:25:21;101720.53;;;-6.40;89.28
46583;BME280;32309;48.858;8.252;2022-12-18T08:27:21;101718.94;;;-6.38;89.38
46583;BME280;32309;48.858;8.252;2022-12-18T08:29:21;101722.22;;;-6.41;89.48
46583;BME280;32309;48.858;8.252;2022-12-18T08:31:21;101714.66;;;-6.41;89.22
46583;BME280;32309;48.858;8.252;2022-12-18T08:33:22;101713.94;;;-6.37;89.53
46583;BME280;32309;48.858;8.252;2022-12-18T08:35:22;101706.44;;;-6.35;89.02
46583;BME280;32309;48.858;8.252;2022-12-18T08:37:22;101706.34;;;-6.38;88.83
46583;BME280;32309;48.858;8.252;2022-12-18T08:39:23;101704.66;;;-6.38;87.98
46583;BME280;32309;48.858;8.252;2022-12-18T08:41:23;101705.47;;;-6.39;88.59
46583;BME280;32309;48.858;8.252;2022-12-18T08:43:23;101695.44;;;-6.37;88.86
46583;BME280;32309;48.858;8.252;2022-12-18T08:45:42;101692.97;;;-6.36;88.94
46583;BME280;32309;48.858;8.252;2022-12-18T08:47:42;101693.75;;;-6.37;88.06
46583;BME280;32309;48.858;8.252;2022-12-18T08:49:42;101682.91;;;-6.34;89.11
46583;BME280;32309;48.858;8.252;2022-12-18T08:51:42;101671.31;;;-6.29;89.46
46583;BME280;32309;48.858;8.252;2022-12-18T08:53:43;101662.97;;;-6.28;89.14
46583;BME280;32309;48.858;8.252;2022-12-18T08:55:44;101665.56;;;-6.25;88.64
46583;BME280;32309;48.858;8.252;2022-12-18T08:57:47;101669.78;;;-6.25;88.10
46583;BME280;32309;48.858;8.252;2022-12-18T08:59:47;101662.78;;;-6.32;87.54
46583;BME280;32309;48.858;8.252;2022-12-18T09:01:48;101664.34;;;-6.36;88.13
46583;BME280;32309;48.858;8.252;2022-12-18T09:03:48;101670.22;;;-6.37;88.02
46583;BME280;32309;48.858;8.252;2022-12-18T09:05:49;101676.94;;;-6.36;88.47
46583;BME280;32309;48.858;8.252;2022-12-18T09:07:50;101687.03;;;-6.36;88.11
46583;BME280;32309;48.858;8.252;2022-12-18T09:09:50;101686.16;;;-6.38;88.03
46583;BME280;32309;48.858;8.252;2022-12-18T09:11:51;101683.41;;;-6.44;88.15
46583;BME280;32309;48.858;8.252;2022-12-18T09:13:51;101675.97;;;-6.41;87.55
46583;BME280;32309;48.858;8.252;2022-12-18T09:15:52;101688.75;;;-6.35;88.41
46583;BME280;32309;48.858;8.252;2022-12-18T09:17:53;101694.69;;;-6.34;87.40
46583;BME280;32309;48.858;8.252;2022-12-18T09:19:53;101691.25;;;-6.37;87.67
46583;BME280;32309;48.858;8.252;2022-12-18T09:21:54;101689.38;;;-6.42;87.32
46583;BME280;32309;48.858;8.252;2022-12-18T09:23:55;101701.00;;;-6.46;87.50
46583;BME280;32309;48.858;8.252;2022-12-18T09:25:58;101709.31;;;-6.48;87.25
46583;BME280;32309;48.858;8.252;2022-12-18T09:27:59;101703.47;;;-6.47;87.09
46583;BME280;32309;48.858;8.252;2022-12-18T09:30:00;101704.47;;;-6.44;87.21
46583;BME280;32309;48.858;8.252;2022-12-18T09:32:00;101711.09;;;-6.46;86.45
46583;BME280;32309;48.858;8.252;2022-12-18T09:34:00;101718.63;;;-6.47;86.57
46583;BME280;32309;48.858;8.252;2022-12-18T09:36:01;101736.84;;;-6.55;86.05
46583;BME280;32309;48.858;8.252;2022-12-18T09:38:02;101733.25;;;-6.61;86.01
46583;BME280;32309;48.858;8.252;2022-12-18T09:40:02;101723.09;;;-6.63;85.55
46583;BME280;32309;48.858;8.252;2022-12-18T09:42:02;101728.91;;;-6.65;85.35
46583;BME280;32309;48.858;8.252;2022-12-18T09:44:05;101738.53;;;-6.78;85.22
46583;BME280;32309;48.858;8.252;2022-12-18T09:46:10;101728.47;;;-6.78;86.07
46583;BME280;32309;48.858;8.252;2022-12-18T09:48:23;101723.66;;;-6.72;87.47
46583;BME280;32309;48.858;8.252;2022-12-18T09:52:25;101736.97;;;-6.52;86.93
46583;BME280;32309;48.858;8.252;2022-12-18T09:54:35;101750.75;;;-6.42;86.94
46583;BME280;32309;48.858;8.252;2022-12-18T09:56:38;101748.56;;;-6.32;87.40
46583;BME280;32309;48.858;8.252;2022-12-18T09:58:41;101751.31;;;-6.26;87.39
46583;BME280;32309;48.858;8.252;2022-12-18T10:00:45;101752.41;;;-6.20;86.58
46583;BME280;32309;48.858;8.252;2022-12-18T10:02:45;101748.31;;;-6.16;87.18
46583;BME280;32309;48.858;8.252;2022-12-18T10:04:47;101749.25;;;-6.12;86.34
46583;BME280;32309;48.858;8.252;2022-12-18T10:09:27;101755.06;;;-6.15;86.50
46583;BME280;32309;48.858;8.252;2022-12-18T10:11:27;101751.75;;;-6.14;86.17
46583;BME280;32309;48.858;8.252;2022-12-18T10:13:42;101748.50;;;-6.10;86.97
46583;BME280;32309;48.858;8.252;2022-12-18T10:19:46;101745.13;;;-6.10;85.61
46583;BME280;32309;48.858;8.252;2022-12-18T10:24:02;101725.78;;;-6.10;85.65
46583;BME280;32309;48.858;8.252;2022-12-18T10:26:05;101727.47;;;-6.10;86.05
46583;BME280;32309;48.858;8.252;2022-12-18T10:28:12;101724.19;;;-6.08;85.77
46583;BME280;32309;48.858;8.252;2022-12-18T10:30:14;101724.03;;;-6.12;85.73
46583;BME280;32309;48.858;8.252;2022-12-18T10:32:19;101722.34;;;-6.13;85.38
46583;BME280;32309;48.858;8.252;2022-12-18T10:34:20;101722.22;;;-6.16;85.54
46583;BME280;32309;48.858;8.252;2022-12-18T10:36:20;101721.31;;;-6.19;85.49
46583;BME280;32309;48.858;8.252;2022-12-18T10:38:21;101723.78;;;-6.20;85.59
46583;BME280;32309;48.858;8.252;2022-12-18T10:40:22;101708.00;;;-6.14;85.16
46583;BME280;32309;48.858;8.252;2022-12-18T10:42:23;101705.59;;;-6.10;85.14
46583;BME280;32309;48.858;8.252;2022-12-18T10:44:23;101718.31;;;-6.08;84.90
46583;BME280;32309;48.858;8.252;2022-12-18T10:46:25;101716.44;;;-6.12;85.15
46583;BME280;32309;48.858;8.252;2022-12-18T10:48:25;101718.94;;;-6.14;85.39
46583;BME280;32309;48.858;8.252;2022-12-18T10:50:30;101720.69;;;-6.11;85.18
46583;BME280;32309;48.858;8.252;2022-12-18T10:52:31;101711.41;;;-6.12;85.59
46583;BME280;32309;48.858;8.252;2022-12-18T10:54:31;101706.31;;;-6.14;85.58
46583;BME280;32309;48.858;8.252;2022-12-18T10:56:35;101706.31;;;-6.14;85.88
46583;BME280;32309;48.858;8.252;2022-12-18T10:58:37;101698.16;;;-6.07;85.97